Time,TemperatureF,DewpointF,PressureIn,WindDirection,WindDirectionDegrees,WindSpeedMPH,WindSpeedGustMPH,Humidity,HourlyPrecipIn,Conditions,Clouds,dailyrainin,SoftwareType,DateUTC
2017-06-24 00:03:00,76.1,67.2,29.99,North,-9999,-999.9,-999.0,74,0.00,,,0.47,open2300-1.11,2017-06-24 04:03:00,
2017-06-24 00:08:00,75.9,67.0,29.99,North,-9999,-999.9,-999.0,74,0.00,,,0.47,open2300-1.11,2017-06-24 04:08:00,
2017-06-24 00:13:00,75.9,67.0,29.99,North,-9999,-999.9,-999.0,74,0.00,,,0.47,open2300-1.11,2017-06-24 04:13:00,
2017-06-24 00:18:00,75.9,67.4,29.99,North,-9999,-999.9,-999.0,75,0.00,,,0.47,open2300-1.11,2017-06-24 04:18:00,
2017-06-24 00:23:00,75.7,67.2,29.99,North,-9999,-999.9,-999.0,75,0.00,,,0.47,open2300-1.11,2017-06-24 04:23:00,
2017-06-24 00:28:00,75.7,67.2,29.99,North,-9999,-999.9,-999.0,75,0.00,,,0.47,open2300-1.11,2017-06-24 04:28:00,
2017-06-24 00:33:00,75.6,67.1,29.99,North,-9999,-999.9,-999.0,75,0.00,,,0.47,open2300-1.11,2017-06-24 04:33:00,
2017-06-24 00:38:00,75.6,67.5,29.99,North,-9999,-999.9,-999.0,76,0.00,,,0.47,open2300-1.11,2017-06-24 04:38:00,
2017-06-24 00:43:00,75.4,67.3,29.99,North,-9999,-999.9,-999.0,76,0.00,,,0.47,open2300-1.11,2017-06-24 04:43:00,
2017-06-24 00:48:00,75.4,67.3,29.99,North,-9999,-999.9,-999.0,76,0.00,,,0.47,open2300-1.11,2017-06-24 04:48:00,
2017-06-24 00:53:00,75.0,66.6,29.99,North,-9999,-999.9,-999.0,75,0.00,,,0.47,open2300-1.11,2017-06-24 04:53:00,
2017-06-24 00:58:00,75.0,66.6,29.99,North,-9999,-999.9,-999.0,75,0.00,,,0.47,open2300-1.11,2017-06-24 04:58:00,
2017-06-24 01:03:00,75.0,67.0,29.99,North,-9999,-999.9,-999.0,76,0.00,,,0.47,open2300-1.11,2017-06-24 05:03:00,
2017-06-24 01:08:00,75.0,67.0,30.00,North,-9999,-999.9,-999.0,76,0.00,,,0.47,open2300-1.11,2017-06-24 05:08:00,
2017-06-24 01:13:00,74.8,66.8,29.99,North,-9999,-999.9,-999.0,76,0.00,,,0.47,open2300-1.11,2017-06-24 05:13:00,
2017-06-24 01:18:00,74.8,66.8,29.99,North,-9999,-999.9,-999.0,76,0.00,,,0.47,open2300-1.11,2017-06-24 05:18:00,
2017-06-24 01:23:00,74.8,66.8,29.99,North,-9999,-999.9,-999.0,76,0.00,,,0.47,open2300-1.11,2017-06-24 05:23:00,
2017-06-24 01:28:00,74.5,66.4,29.99,North,-9999,-999.9,-999.0,76,0.00,,,0.47,open2300-1.11,2017-06-24 05:28:00,
2017-06-24 01:33:00,74.5,66.4,29.99,North,-9999,-999.9,-999.0,76,0.00,,,0.47,open2300-1.11,2017-06-24 05:33:00,
2017-06-24 01:38:00,74.5,66.4,29.99,North,-9999,-999.9,-999.0,76,0.00,,,0.47,open2300-1.11,2017-06-24 05:38:00,
2017-06-24 01:43:00,74.5,66.4,29.99,North,-9999,-999.9,-999.0,76,0.00,,,0.47,open2300-1.11,2017-06-24 05:43:00,
2017-06-24 01:48:00,74.5,66.4,29.98,North,-9999,-999.9,-999.0,76,0.00,,,0.47,open2300-1.11,2017-06-24 05:48:00,
2017-06-24 01:53:00,74.3,66.7,29.98,North,-9999,-999.9,-999.0,77,0.00,,,0.47,open2300-1.11,2017-06-24 05:53:00,
2017-06-24 01:58:00,74.3,66.7,29.98,North,-9999,-999.9,-999.0,77,0.00,,,0.47,open2300-1.11,2017-06-24 05:58:00,
2017-06-24 02:03:00,74.1,66.5,29.98,North,-9999,-999.9,-999.0,77,0.00,,,0.47,open2300-1.11,2017-06-24 06:03:00,
2017-06-24 02:08:00,74.1,66.5,29.99,North,-9999,-999.9,-999.0,77,0.00,,,0.47,open2300-1.11,2017-06-24 06:08:00,
2017-06-24 02:13:00,74.1,66.5,29.99,North,-9999,-999.9,-999.0,77,0.00,,,0.47,open2300-1.11,2017-06-24 06:13:00,
2017-06-24 02:18:00,74.1,66.5,29.99,North,-9999,-999.9,-999.0,77,0.00,,,0.47,open2300-1.11,2017-06-24 06:18:00,
2017-06-24 02:23:00,73.9,66.3,29.98,North,-9999,-999.9,-999.0,77,0.00,,,0.47,open2300-1.11,2017-06-24 06:23:00,
2017-06-24 02:28:00,73.9,66.3,29.99,North,-9999,-999.9,-999.0,77,0.00,,,0.47,open2300-1.11,2017-06-24 06:28:00,
2017-06-24 02:33:00,73.9,66.3,29.99,North,-9999,-999.9,-999.0,77,0.00,,,0.47,open2300-1.11,2017-06-24 06:33:00,
2017-06-24 02:38:00,73.9,66.3,29.98,North,-9999,-999.9,-999.0,77,0.00,,,0.47,open2300-1.11,2017-06-24 06:38:00,
2017-06-24 02:43:00,73.8,66.5,29.98,North,-9999,-999.9,-999.0,78,0.00,,,0.47,open2300-1.11,2017-06-24 06:43:00,
2017-06-24 02:48:00,73.8,66.5,29.98,North,-9999,-999.9,-999.0,78,0.00,,,0.47,open2300-1.11,2017-06-24 06:48:00,
2017-06-24 02:53:00,73.8,66.1,29.98,North,-9999,-999.9,-999.0,77,0.00,,,0.47,open2300-1.11,2017-06-24 06:53:00,
2017-06-24 02:58:00,73.8,66.5,29.98,North,-9999,-999.9,-999.0,78,0.00,,,0.47,open2300-1.11,2017-06-24 06:58:00,
2017-06-24 03:03:00,73.6,65.9,29.98,North,-9999,-999.9,-999.0,77,0.00,,,0.47,open2300-1.11,2017-06-24 07:03:00,
2017-06-24 03:08:00,73.6,66.3,29.98,North,-9999,-999.9,-999.0,78,0.00,,,0.47,open2300-1.11,2017-06-24 07:08:00,
2017-06-24 03:13:00,73.6,66.3,29.99,North,-9999,-999.9,-999.0,78,0.00,,,0.47,open2300-1.11,2017-06-24 07:13:00,
2017-06-24 03:18:00,73.6,66.3,29.98,North,-9999,-999.9,-999.0,78,0.00,,,0.47,open2300-1.11,2017-06-24 07:18:00,
2017-06-24 03:23:00,73.6,66.3,29.98,North,-9999,-999.9,-999.0,78,0.00,,,0.47,open2300-1.11,2017-06-24 07:23:00,
2017-06-24 03:28:00,73.6,66.3,29.97,North,-9999,-999.9,-999.0,78,0.00,,,0.47,open2300-1.11,2017-06-24 07:28:00,
2017-06-24 03:33:00,73.4,66.2,29.97,North,-9999,-999.9,-999.0,78,0.00,,,0.47,open2300-1.11,2017-06-24 07:33:00,
2017-06-24 03:38:00,73.6,66.3,29.98,North,-9999,-999.9,-999.0,78,0.00,,,0.47,open2300-1.11,2017-06-24 07:38:00,
2017-06-24 03:43:00,73.4,66.2,29.98,North,-9999,-999.9,-999.0,78,0.00,,,0.47,open2300-1.11,2017-06-24 07:43:00,
2017-06-24 03:48:00,73.2,66.0,29.97,North,-9999,-999.9,-999.0,78,0.00,,,0.47,open2300-1.11,2017-06-24 07:48:00,
2017-06-24 03:53:00,73.2,66.0,29.98,North,-9999,-999.9,-999.0,78,0.00,,,0.47,open2300-1.11,2017-06-24 07:53:00,
2017-06-24 03:58:00,73.2,66.0,29.98,North,-9999,-999.9,-999.0,78,0.00,,,0.47,open2300-1.11,2017-06-24 07:58:00,
2017-06-24 04:03:00,73.2,66.0,29.98,North,-9999,-999.9,-999.0,78,0.00,,,0.47,open2300-1.11,2017-06-24 08:03:00,
2017-06-24 04:08:00,73.2,66.0,29.98,North,-9999,-999.9,-999.0,78,0.00,,,0.47,open2300-1.11,2017-06-24 08:08:00,
2017-06-24 04:13:00,73.2,66.4,29.98,North,-9999,-999.9,-999.0,79,0.00,,,0.47,open2300-1.11,2017-06-24 08:13:00,
2017-06-24 04:18:00,73.2,66.4,29.97,North,-9999,-999.9,-999.0,79,0.00,,,0.47,open2300-1.11,2017-06-24 08:18:00,
2017-06-24 04:23:00,73.2,66.4,29.98,North,-9999,-999.9,-999.0,79,0.00,,,0.47,open2300-1.11,2017-06-24 08:23:00,
2017-06-24 04:28:00,73.2,66.4,29.98,North,-9999,-999.9,-999.0,79,0.00,,,0.47,open2300-1.11,2017-06-24 08:28:00,
2017-06-24 04:33:00,73.2,66.4,29.98,North,-9999,-999.9,-999.0,79,0.00,,,0.47,open2300-1.11,2017-06-24 08:33:00,
2017-06-24 04:38:00,73.2,66.4,29.98,North,-9999,-999.9,-999.0,79,0.00,,,0.47,open2300-1.11,2017-06-24 08:38:00,
2017-06-24 04:43:00,73.0,66.2,29.98,North,-9999,-999.9,-999.0,79,0.00,,,0.47,open2300-1.11,2017-06-24 08:43:00,
2017-06-24 04:48:00,73.0,66.2,29.98,North,-9999,-999.9,-999.0,79,0.00,,,0.47,open2300-1.11,2017-06-24 08:48:00,
2017-06-24 04:53:00,73.0,66.2,29.98,North,-9999,-999.9,-999.0,79,0.00,,,0.47,open2300-1.11,2017-06-24 08:53:00,
2017-06-24 04:58:00,73.0,66.2,29.98,North,-9999,-999.9,-999.0,79,0.00,,,0.47,open2300-1.11,2017-06-24 08:58:00,
2017-06-24 05:03:00,73.0,66.2,29.98,North,-9999,-999.9,-999.0,79,0.00,,,0.47,open2300-1.11,2017-06-24 09:03:00,
2017-06-24 05:08:00,73.0,66.2,29.99,North,-9999,-999.9,-999.0,79,0.00,,,0.47,open2300-1.11,2017-06-24 09:08:00,
2017-06-24 05:13:00,73.0,66.6,29.99,North,-9999,-999.9,-999.0,80,0.00,,,0.47,open2300-1.11,2017-06-24 09:13:00,
2017-06-24 05:18:00,73.0,66.6,29.99,North,-9999,-999.9,-999.0,80,0.00,,,0.47,open2300-1.11,2017-06-24 09:18:00,
2017-06-24 05:23:00,73.0,66.6,29.99,North,-9999,-999.9,-999.0,80,0.00,,,0.47,open2300-1.11,2017-06-24 09:23:00,
2017-06-24 05:28:00,73.0,66.2,29.99,North,-9999,-999.9,-999.0,79,0.00,,,0.47,open2300-1.11,2017-06-24 09:28:00,
2017-06-24 05:33:00,73.0,66.2,29.99,North,-9999,-999.9,-999.0,79,0.00,,,0.47,open2300-1.11,2017-06-24 09:33:00,
2017-06-24 05:38:00,73.0,66.6,29.98,North,-9999,-999.9,-999.0,80,0.00,,,0.47,open2300-1.11,2017-06-24 09:38:00,
2017-06-24 05:43:00,73.0,66.6,29.98,North,-9999,-999.9,-999.0,80,0.00,,,0.47,open2300-1.11,2017-06-24 09:43:00,
2017-06-24 05:48:00,73.0,66.6,29.99,North,-9999,-999.9,-999.0,80,0.00,,,0.47,open2300-1.11,2017-06-24 09:48:00,
2017-06-24 05:53:00,72.9,66.4,29.99,North,-9999,-999.9,-999.0,80,0.00,,,0.47,open2300-1.11,2017-06-24 09:53:00,
2017-06-24 05:58:00,72.9,66.4,29.99,North,-9999,-999.9,-999.0,80,0.00,,,0.47,open2300-1.11,2017-06-24 09:58:00,
2017-06-24 06:03:00,72.9,66.4,29.99,North,-9999,-999.9,-999.0,80,0.00,,,0.47,open2300-1.11,2017-06-24 10:03:00,
2017-06-24 06:08:00,72.9,66.4,29.99,North,-9999,-999.9,-999.0,80,0.00,,,0.47,open2300-1.11,2017-06-24 10:08:00,
2017-06-24 06:13:00,72.9,66.4,29.99,North,-9999,-999.9,-999.0,80,0.00,,,0.47,open2300-1.11,2017-06-24 10:13:00,
2017-06-24 06:18:00,72.9,66.4,29.99,North,-9999,-999.9,-999.0,80,0.00,,,0.47,open2300-1.11,2017-06-24 10:18:00,
2017-06-24 06:23:00,72.9,66.4,29.99,North,-9999,-999.9,-999.0,80,0.00,,,0.47,open2300-1.11,2017-06-24 10:23:00,
2017-06-24 06:28:00,72.9,66.4,30.00,North,-9999,-999.9,-999.0,80,0.00,,,0.47,open2300-1.11,2017-06-24 10:28:00,
2017-06-24 06:33:00,72.9,66.4,30.00,North,-9999,-999.9,-999.0,80,0.00,,,0.47,open2300-1.11,2017-06-24 10:33:00,
2017-06-24 06:38:00,72.9,66.4,30.00,North,-9999,-999.9,-999.0,80,0.00,,,0.47,open2300-1.11,2017-06-24 10:38:00,
2017-06-24 06:43:00,72.9,66.4,30.00,North,-9999,-999.9,-999.0,80,0.00,,,0.47,open2300-1.11,2017-06-24 10:43:00,
2017-06-24 06:48:00,72.9,66.4,30.00,North,-9999,-999.9,-999.0,80,0.00,,,0.47,open2300-1.11,2017-06-24 10:48:00,
2017-06-24 06:53:00,72.9,66.4,30.00,North,-9999,-999.9,-999.0,80,0.00,,,0.47,open2300-1.11,2017-06-24 10:53:00,
2017-06-24 06:58:00,73.0,66.6,30.00,North,-9999,-999.9,-999.0,80,0.00,,,0.47,open2300-1.11,2017-06-24 10:58:00,
2017-06-24 07:03:00,73.0,66.6,30.00,North,-9999,-999.9,-999.0,80,0.00,,,0.47,open2300-1.11,2017-06-24 11:03:00,
2017-06-24 07:08:00,73.0,66.9,30.00,North,-9999,-999.9,-999.0,81,0.00,,,0.47,open2300-1.11,2017-06-24 11:08:00,
2017-06-24 07:13:00,73.0,66.6,30.00,North,-9999,-999.9,-999.0,80,0.00,,,0.47,open2300-1.11,2017-06-24 11:13:00,
2017-06-24 07:18:00,73.0,66.6,30.00,North,-9999,-999.9,-999.0,80,0.00,,,0.47,open2300-1.11,2017-06-24 11:18:00,
2017-06-24 07:23:00,73.0,66.6,30.00,North,-9999,-999.9,-999.0,80,0.00,,,0.47,open2300-1.11,2017-06-24 11:23:00,
2017-06-24 07:28:00,73.2,67.1,30.00,North,-9999,-999.9,-999.0,81,0.00,,,0.47,open2300-1.11,2017-06-24 11:28:00,
2017-06-24 07:33:00,73.2,66.7,30.00,North,-9999,-999.9,-999.0,80,0.00,,,0.47,open2300-1.11,2017-06-24 11:33:00,
2017-06-24 07:38:00,73.2,66.7,30.01,North,-9999,-999.9,-999.0,80,0.00,,,0.47,open2300-1.11,2017-06-24 11:38:00,
2017-06-24 07:43:00,73.2,66.7,30.01,North,-9999,-999.9,-999.0,80,0.00,,,0.47,open2300-1.11,2017-06-24 11:43:00,
2017-06-24 07:48:00,73.2,66.7,30.01,North,-9999,-999.9,-999.0,80,0.00,,,0.47,open2300-1.11,2017-06-24 11:48:00,
2017-06-24 07:53:00,73.4,66.9,30.02,North,-9999,-999.9,-999.0,80,0.00,,,0.47,open2300-1.11,2017-06-24 11:53:00,
2017-06-24 07:58:00,73.6,67.1,30.02,North,-9999,-999.9,-999.0,80,0.00,,,0.47,open2300-1.11,2017-06-24 11:58:00,
2017-06-24 08:03:00,73.6,67.1,30.01,North,-9999,-999.9,-999.0,80,0.00,,,0.47,open2300-1.11,2017-06-24 12:03:00,
2017-06-24 08:08:00,73.6,67.1,30.02,North,-9999,-999.9,-999.0,80,0.00,,,0.47,open2300-1.11,2017-06-24 12:08:00,
2017-06-24 08:13:00,73.8,67.3,30.02,North,-9999,-999.9,-999.0,80,0.00,,,0.47,open2300-1.11,2017-06-24 12:13:00,
2017-06-24 08:18:00,73.8,67.3,30.02,North,-9999,-999.9,-999.0,80,0.00,,,0.47,open2300-1.11,2017-06-24 12:18:00,
2017-06-24 08:23:00,73.8,67.3,30.03,North,-9999,-999.9,-999.0,80,0.00,,,0.47,open2300-1.11,2017-06-24 12:23:00,
2017-06-24 08:28:00,73.9,67.5,30.03,North,-9999,-999.9,-999.0,80,0.00,,,0.47,open2300-1.11,2017-06-24 12:28:00,
2017-06-24 08:33:00,73.9,67.8,30.03,North,-9999,-999.9,-999.0,81,0.00,,,0.47,open2300-1.11,2017-06-24 12:33:00,
2017-06-24 08:38:00,73.9,67.5,30.03,North,-9999,-999.9,-999.0,80,0.00,,,0.47,open2300-1.11,2017-06-24 12:38:00,
2017-06-24 08:43:00,73.9,67.8,30.03,North,-9999,-999.9,-999.0,81,0.00,,,0.47,open2300-1.11,2017-06-24 12:43:00,
2017-06-24 08:48:00,74.1,67.6,30.03,North,-9999,-999.9,-999.0,80,0.00,,,0.47,open2300-1.11,2017-06-24 12:48:00,
2017-06-24 08:53:00,74.1,67.6,30.03,North,-9999,-999.9,-999.0,80,0.00,,,0.47,open2300-1.11,2017-06-24 12:53:00,
2017-06-24 08:58:00,74.1,68.0,30.04,North,-9999,-999.9,-999.0,81,0.00,,,0.47,open2300-1.11,2017-06-24 12:58:00,
2017-06-24 09:03:00,74.3,68.2,30.04,North,-9999,-999.9,-999.0,81,0.00,,,0.47,open2300-1.11,2017-06-24 13:03:00,
2017-06-24 09:08:00,74.3,68.2,30.04,North,-9999,-999.9,-999.0,81,0.00,,,0.47,open2300-1.11,2017-06-24 13:08:00,
2017-06-24 09:13:00,74.3,68.2,30.03,North,-9999,-999.9,-999.0,81,0.00,,,0.47,open2300-1.11,2017-06-24 13:13:00,
2017-06-24 09:18:00,74.5,68.3,30.03,North,-9999,-999.9,-999.0,81,0.00,,,0.47,open2300-1.11,2017-06-24 13:18:00,
2017-06-24 09:23:00,74.5,68.3,30.03,North,-9999,-999.9,-999.0,81,0.00,,,0.47,open2300-1.11,2017-06-24 13:23:00,
2017-06-24 09:28:00,74.5,68.3,30.03,North,-9999,-999.9,-999.0,81,0.00,,,0.47,open2300-1.11,2017-06-24 13:28:00,